Thunder radar more information blitzortung!


Radar de pluja more information rain snow radar


Visita la nostra xarxa de llocs de meteo:

Template documentation
and downloads

And another site



No particular awareness of the weather is required.    There are no Weather-warnings

Pagina Historial Weather Underground text

Diari Resum Juliol 19, 2017 Unitats:  Imperial    Mètric   Tant
« Previous Dia
SegĂźent Dia »
Diari Setmana Mensual Anual Personalitzada
  Maxima: Minima: Media:
Temperatura: 89.1 °F 69.1 °F 80.8 °F
Punt de rosada: 66.6 °F 54.7 °F 62.1 °F
Humitat: 82 % 34 % 55 %
Wind Speed: 16.1 mph 0 mph 5.8 mph
RĂ fegues de vent: 16.1 mph - -
Vent:- - East
Pression baro: 30 in 29.8 in -
Precipitacions: 0 in    
Historical Graphs
 
 
Dades de taula per Juliol 19, 2017
Temps Temperatura Punt de rosada Pression baro Vent Wind Speed RĂ fegues de vent Humitat Rainfall Rate (Hourly)
00:00 74.7 °F 61.7 °F 30 in SW 1 mph 3 mph 64 % 0 in
00:05 74.7 °F 62.1 °F 30 in SW 2 mph 4 mph 65 % 0 in
00:15 70 °F 62.4 °F 29.9 in SW 2 mph 2 mph 77 % 0 in
00:25 69.6 °F 62.8 °F 29.9 in SW 1 mph 2 mph 79 % 0 in
00:35 69.6 °F 62.8 °F 29.9 in WSW 1 mph 2 mph 79 % 0 in
00:45 69.6 °F 63.1 °F 29.9 in WSW 1 mph 2 mph 80 % 0 in
00:55 69.6 °F 63.5 °F 29.9 in Calm   1 mph 81 % 0 in
01:05 69.8 °F 63.3 °F 29.9 in WSW 2 mph 2 mph 80 % 0 in
01:15 69.8 °F 63.7 °F 29.9 in Calm   2 mph 81 % 0 in
01:25 69.6 °F 63.9 °F 29.9 in Calm     82 % 0 in
01:35 69.6 °F 63.9 °F 29.9 in Calm   1 mph 82 % 0 in
01:45 69.4 °F 63.3 °F 29.9 in Calm   2 mph 81 % 0 in
01:55 69.1 °F 62.6 °F 29.9 in WSW 3 mph 3 mph 80 % 0 in
02:05 69.3 °F 62.1 °F 29.9 in WSW 1 mph 4 mph 78 % 0 in
02:15 69.6 °F 62.4 °F 29.9 in WSW 1 mph 2 mph 78 % 0 in
02:25 70.3 °F 62.4 °F 30 in West 1 mph 3 mph 76 % 0 in
02:35 71.2 °F 63 °F 30 in Calm   1 mph 75 % 0 in
02:45 71.8 °F 62.8 °F 29.9 in Calm   2 mph 73 % 0 in
02:55 72 °F 62.8 °F 29.9 in NE 2 mph 3 mph 73 % 0 in
03:05 71.6 °F 62.1 °F 29.9 in NNE 2 mph 4 mph 72 % 0 in
03:15 71.6 °F 62.4 °F 29.9 in North 1 mph 2 mph 73 % 0 in
03:25 71.4 °F 62.8 °F 29.9 in West 1 mph 2 mph 74 % 0 in
03:35 72.1 °F 62.2 °F 29.9 in WNW 1 mph 1 mph 71 % 0 in
03:45 73 °F 62.8 °F 29.9 in NNE 1 mph 3 mph 70 % 0 in
03:55 75.2 °F 63.5 °F 29.9 in NE 1 mph 4 mph 67 % 0 in
04:05 76.1 °F 63.5 °F 29.9 in NE 2 mph 4 mph 65 % 0 in
04:15 77.9 °F 64.2 °F 29.9 in NE 2 mph 4 mph 63 % 0 in
04:25 78.6 °F 63.7 °F 29.9 in NE 2 mph 6 mph 60 % 0 in
04:35 79.5 °F 64.4 °F 29.9 in NNE 2 mph 4 mph 60 % 0 in
04:45 79.7 °F 63.1 °F 29.9 in NNE 3 mph 6 mph 57 % 0 in
04:55 81.3 °F 63.7 °F 29.9 in NNE 2 mph 3 mph 55 % 0 in
05:05 81.9 °F 62.4 °F 29.9 in NE 3 mph 4 mph 52 % 0 in
05:15 82.6 °F 62.6 °F 29.9 in NE 2 mph 3 mph 51 % 0 in
05:25 83.1 °F 61.3 °F 29.9 in ENE 3 mph 3 mph 48 % 0 in
05:30 83.5 °F 61.2 °F 29.9 in East 2 mph 3 mph 47 % 0 in
10:31 83.5 °F 61.2 °F 29.9 in NNE 3.5 mph 3.5 mph 47 % 0 in
10:37 84.2 °F 61.9 °F 29.9 in SW 2.4 mph 2.4 mph 47 % 0 in
10:42 84.2 °F 61.2 °F 29.9 in NNE 3.5 mph 3.5 mph 46 % 0 in
10:47 85.3 °F 62.2 °F 29.9 in SW 3.5 mph 3.5 mph 46 % 0 in
10:48 85.5 °F 62.2 °F 29.9 in West 1.4 mph 1.4 mph 46 % 0 in
10:53 85.1 °F 61.3 °F 29.9 in North 5.8 mph 5.8 mph 45 % 0 in
10:58 85.3 °F 62.2 °F 29.9 in ENE 5.8 mph 5.8 mph 46 % 0 in
11:03 85.1 °F 61.3 °F 29.9 in NNE 2.3 mph 2.3 mph 45 % 0 in
11:08 85.3 °F 61 °F 29.9 in SW 3.6 mph 3.6 mph 44 % 0 in
11:13 86 °F 61 °F 29.9 in ENE 3.5 mph 3.5 mph 43 % 0 in
11:18 86.4 °F 60.6 °F 29.9 in East 4.6 mph 4.6 mph 42 % 0 in
11:23 87.1 °F 59.7 °F 29.9 in ESE 3.5 mph 3.5 mph 40 % 0 in
11:28 86.9 °F 59 °F 29.9 in East 3.5 mph 3.5 mph 39 % 0 in
11:33 86.4 °F 57.7 °F 29.9 in NE 4.6 mph 4.6 mph 38 % 0 in
11:38 86.7 °F 58.1 °F 29.9 in South 3.5 mph 3.5 mph 38 % 0 in
11:43 86.7 °F 58.1 °F 29.9 in ESE 5.6 mph 5.6 mph 38 % 0 in
11:49 86 °F 57.4 °F 29.9 in East 4.6 mph 4.6 mph 38 % 0 in
11:54 85.8 °F 57.4 °F 29.9 in SE 3.5 mph 3.5 mph 38 % 0 in
11:59 85.6 °F 56.5 °F 29.9 in ESE 5.4 mph 5.4 mph 37 % 0 in
12:05 85.3 °F 55.2 °F 29.9 in SE 4.6 mph 4.6 mph 36 % 0 in
12:10 85.5 °F 56.1 °F 29.9 in ENE 4.6 mph 4.6 mph 37 % 0 in
12:15 86.4 °F 57 °F 29.9 in ENE 1 mph 3 mph 37 % 0 in
12:20 86.4 °F 55.6 °F 29.9 in SE 3.6 mph 3.6 mph 35 % 0 in
12:25 86.4 °F 54.7 °F 29.9 in ENE 4.6 mph 4.6 mph 34 % 0 in
12:30 86.7 °F 55.8 °F 29.9 in East 5 mph 9 mph 35 % 0 in
12:35 86.9 °F 55.2 °F 29.9 in East 5 mph 7 mph 34 % 0 in
12:40 87.6 °F 56.7 °F 29.9 in East 5 mph 7 mph 35 % 0 in
12:45 87.8 °F 56.7 °F 29.9 in East 6 mph 8 mph 35 % 0 in
12:50 87.4 °F 56.5 °F 29.9 in East 7 mph 11 mph 35 % 0 in
12:55 88 °F 56.8 °F 29.8 in East 7 mph 9 mph 35 % 0 in
13:00 88.9 °F 58.5 °F 29.8 in ESE 2 mph 9 mph 36 % 0 in
13:05 88.7 °F 58.3 °F 29.8 in SE 8.1 mph 8.1 mph 36 % 0 in
13:10 87.8 °F 57.6 °F 29.9 in ESE 7 mph 9 mph 36 % 0 in
13:15 87.4 °F 57.9 °F 29.9 in ESE 9 mph 13 mph 37 % 0 in
13:20 87.1 °F 57.7 °F 29.9 in ESE 9.8 mph 9.8 mph 37 % 0 in
13:25 86.7 °F 58.1 °F 29.9 in East 8.1 mph 8.1 mph 38 % 0 in
13:30 87.1 °F 58.5 °F 29.9 in ESE 6 mph 10 mph 38 % 0 in
13:35 86.9 °F 58.3 °F 29.9 in ESE 6 mph 10 mph 38 % 0 in
13:40 87.1 °F 59.2 °F 29.9 in ESE 6 mph 14 mph 39 % 0 in
13:45 87.3 °F 59.2 °F 29.9 in ESE 6 mph 14 mph 39 % 0 in
13:46 87.4 °F 59.4 °F 29.9 in ENE 9.2 mph 9.2 mph 39 % 0 in
13:51 87.3 °F 60.1 °F 29.9 in East 8.1 mph 8.1 mph 40 % 0 in
13:56 88.3 °F 60.3 °F 29.9 in East 9.2 mph 9.2 mph 39 % 0 in
14:01 88.2 °F 60.1 °F 29.9 in East 6 mph 6 mph 39 % 0 in
14:06 88.7 °F 60.6 °F 29.9 in ENE 5.4 mph 5.4 mph 39 % 0 in
14:11 88.5 °F 59.7 °F 29.9 in South 10.4 mph 10.4 mph 38 % 0 in
14:16 88.7 °F 59.7 °F 29.9 in ESE 15.6 mph 15.6 mph 38 % 0 in
14:21 88.9 °F 60.1 °F 29.9 in South 6.9 mph 6.9 mph 38 % 0 in
14:26 89.1 °F 60.1 °F 29.9 in ESE 7.1 mph 7.8 mph 38 % 0 in
14:31 88 °F 59.9 °F 29.9 in ESE 11.5 mph 11.5 mph 39 % 0 in
14:33 87.8 °F 59.7 °F 29.9 in ESE 15 mph 15 mph 39 % 0 in
14:38 87.6 °F 60.3 °F 29.9 in East 12.7 mph 12.7 mph 40 % 0 in
14:43 87.6 °F 61 °F 29.9 in ESE 8.1 mph 8.1 mph 41 % 0 in
14:48 87.8 °F 61.2 °F 29.9 in SSE 9.2 mph 9.2 mph 41 % 0 in
14:53 86.7 °F 61 °F 29.9 in ESE 11.5 mph 11.5 mph 42 % 0 in
14:58 87.3 °F 61.3 °F 29.9 in SE 10.7 mph 10.7 mph 42 % 0 in
15:03 87.3 °F 62.1 °F 29.9 in East 10 mph 10 mph 43 % 0 in
15:08 87.3 °F 61.3 °F 29.9 in SE 9.2 mph 9.2 mph 42 % 0 in
15:10 87.6 °F 61.7 °F 29.9 in East 9.2 mph 9.2 mph 42 % 0 in
15:14 87.3 °F 61.3 °F 29.9 in ESE 10.7 mph 10.7 mph 42 % 0 in
15:20 88.2 °F 61.5 °F 29.9 in SSW 5.8 mph 5.8 mph 41 % 0 in
15:25 88.9 °F 62.1 °F 29.9 in ESE 6.9 mph 6.9 mph 41 % 0 in
15:30 88.3 °F 61 °F 29.9 in SE 5 mph 14 mph 40 % 0 in
15:35 89.1 °F 61 °F 29.9 in ESE 8 mph 16 mph 39 % 0 in
15:40 88 °F 59.9 °F 29.9 in SSE 8.1 mph 8.1 mph 39 % 0 in
15:45 89.1 °F 61 °F 29.9 in SE 6 mph 9 mph 39 % 0 in
15:50 87.4 °F 60.1 °F 29.9 in SE 9 mph 14 mph 40 % 0 in
15:55 87.6 °F 61 °F 29.9 in SE 5 mph 6 mph 41 % 0 in
16:00 86.4 °F 59.2 °F 29.9 in East 10.4 mph 10.5 mph 40 % 0 in
16:05 86.5 °F 59.4 °F 29.9 in East 11.2 mph 11.2 mph 40 % 0 in
16:10 86.7 °F 59.5 °F 29.9 in NNE 16.1 mph 16.1 mph 40 % 0 in
16:15 87.1 °F 59.7 °F 29.9 in ESE 10.4 mph 10.4 mph 40 % 0 in
16:20 86.4 °F 59.2 °F 29.9 in South 10.4 mph 10.4 mph 40 % 0 in
16:25 86.5 °F 59.4 °F 29.9 in ESE 7 mph 12 mph 40 % 0 in
16:30 87.3 °F 60.1 °F 29.9 in ESE 8.1 mph 8.1 mph 40 % 0 in
16:35 87.4 °F 60.3 °F 29.9 in ESE 8.1 mph 8.1 mph 40 % 0 in
16:40 86.2 °F 59 °F 29.9 in ENE 9.2 mph 9.2 mph 40 % 0 in
16:45 86.5 °F 59.4 °F 29.9 in ESE 10.4 mph 10.4 mph 40 % 0 in
16:50 87.1 °F 59.7 °F 29.9 in East 12.1 mph 12.1 mph 40 % 0 in
16:55 86.2 °F 59 °F 29.9 in ESE 9.2 mph 9.2 mph 40 % 0 in
17:00 86.7 °F 60.3 °F 29.9 in SE 8.1 mph 8.1 mph 41 % 0 in
17:05 86.9 °F 60.4 °F 29.9 in ENE 10.4 mph 10.4 mph 41 % 0 in
17:10 86.5 °F 59.4 °F 29.8 in ESE 8.1 mph 8.1 mph 40 % 0 in
17:11 86.5 °F 59.4 °F 29.8 in ESE 9.8 mph 9.8 mph 40 % 0 in
17:16 86.2 °F 60.4 °F 29.8 in ESE 10.4 mph 10.4 mph 42 % 0 in
17:21 85.8 °F 60.1 °F 29.9 in ESE 9.2 mph 9.2 mph 42 % 0 in
17:26 85.5 °F 60.4 °F 29.9 in South 8.1 mph 8.1 mph 43 % 0 in
17:31 85.5 °F 61.7 °F 29.9 in SE 5.8 mph 5.8 mph 45 % 0 in
17:36 85.8 °F 62.1 °F 29.9 in NE 9.2 mph 9.2 mph 45 % 0 in
17:41 85.1 °F 61.3 °F 29.9 in ESE 8.1 mph 8.1 mph 45 % 0 in
17:46 85.1 °F 61.3 °F 29.9 in East 8.1 mph 8.1 mph 45 % 0 in
17:51 84.6 °F 61 °F 29.9 in ESE 8.1 mph 8.1 mph 45 % 0 in
17:57 84.4 °F 61.3 °F 29.9 in East 9.2 mph 9.2 mph 46 % 0 in
18:02 84.2 °F 61.9 °F 29.9 in ENE 8.1 mph 8.1 mph 47 % 0 in
18:07 84.2 °F 61.9 °F 29.9 in NNE 9.2 mph 9.2 mph 47 % 0 in
18:12 84.2 °F 61.9 °F 29.9 in ENE 6.9 mph 7.4 mph 47 % 0 in
18:17 84.2 °F 61.9 °F 29.9 in East 10.5 mph 10.5 mph 47 % 0 in
18:22 84 °F 62.2 °F 29.8 in SSE 8.1 mph 8.1 mph 48 % 0 in
18:28 83.8 °F 61.5 °F 29.8 in ESE 8.5 mph 8.5 mph 47 % 0 in
18:33 83.3 °F 61 °F 29.8 in SSE 11.5 mph 11.5 mph 47 % 0 in
18:38 82.9 °F 60.1 °F 29.8 in ESE 15 mph 15 mph 46 % 0 in
18:43 82.4 °F 60.1 °F 29.8 in NE 9 mph 9 mph 47 % 0 in
18:48 82.4 °F 60.6 °F 29.8 in ESE 8.1 mph 8.1 mph 48 % 0 in
18:53 82.2 °F 60.6 °F 29.8 in ESE 8.1 mph 8.1 mph 48 % 0 in
18:58 82 °F 61 °F 29.8 in ENE 7.4 mph 7.4 mph 49 % 0 in
19:03 81.7 °F 60.6 °F 29.8 in East 11.5 mph 11.5 mph 49 % 0 in
19:08 81.9 °F 60.8 °F 29.8 in NNE 8.7 mph 8.7 mph 49 % 0 in
19:13 81.7 °F 60.6 °F 29.8 in ENE 6.9 mph 6.9 mph 49 % 0 in
19:15 74.3 °F 66.6 °F 29.8 in NE 5 mph 5 mph 77 % 0 in
19:18 81.3 °F 60.3 °F 29.8 in NNE 5.8 mph 5.8 mph 49 % 0 in
19:23 81.1 °F 60.6 °F 29.8 in ESE 9.2 mph 9.2 mph 50 % 0 in
19:25 74.3 °F 66.6 °F 29.8 in NE 3 mph 5 mph 77 % 0 in
19:28 81.1 °F 60.3 °F 29.8 in NNE 8.1 mph 8.1 mph 49 % 0 in
19:33 81.3 °F 60.3 °F 29.8 in ESE 8.1 mph 8.1 mph 49 % 0 in
19:35 74.1 °F 66.4 °F 29.8 in NE 3 mph 3 mph 77 % 0 in
19:38 81.1 °F 60.6 °F 29.8 in ENE 11.2 mph 11.2 mph 50 % 0 in
19:43 81 °F 60.6 °F 29.8 in ESE 10 mph 10 mph 50 % 0 in
19:45 74.1 °F 66.4 °F 29.8 in NE 5 mph 5 mph 77 % 0 in
19:48 80.8 °F 61 °F 29.8 in South 10.4 mph 10.4 mph 51 % 0 in
19:54 81 °F 60.6 °F 29.8 in ESE 8.1 mph 8.1 mph 50 % 0 in
19:55 74.3 °F 66.6 °F 29.8 in NNE 5 mph 6 mph 77 % 0 in
19:59 80.8 °F 60.4 °F 29.8 in ESE 5.8 mph 5.8 mph 50 % 0 in
20:04 80.8 °F 60.4 °F 29.8 in ESE 5.8 mph 5.8 mph 50 % 0 in
20:05 74.1 °F 66 °F 29.8 in NNE 3 mph 6 mph 76 % 0 in
20:09 80.6 °F 60.8 °F 29.8 in East 5.9 mph 5.9 mph 51 % 0 in
20:10 80.6 °F 60.3 °F 29.8 in ESE 5.8 mph 6 mph 50 % 0 in
20:15 80.6 °F 60.8 °F 29.8 in East 5.8 mph 5.8 mph 51 % 0 in
20:21 80.2 °F 62.6 °F 29.8 in ENE 4.6 mph 4.7 mph 55 % 0 in
20:25 74.1 °F 66 °F 29.8 in NE 5 mph 5 mph 76 % 0 in
20:26 79.7 °F 63.1 °F 29.8 in ENE 4.9 mph 7.8 mph 57 % 0 in
20:31 79.2 °F 63.7 °F 29.8 in ENE 6.2 mph 6.2 mph 59 % 0 in
20:35 74.3 °F 66.2 °F 29.8 in NE 3 mph 5 mph 76 % 0 in
20:36 78.8 °F 64.8 °F 29.8 in SSE 8.1 mph 8.1 mph 62 % 0 in
20:41 78.6 °F 64.9 °F 29.8 in ENE 10.4 mph 10.4 mph 63 % 0 in
20:45 74.3 °F 66.2 °F 29.8 in NE 3 mph 4 mph 76 % 0 in
20:46 78.4 °F 65.1 °F 29.8 in East 8.1 mph 8.1 mph 64 % 0 in
20:51 78.1 °F 65.5 °F 29.8 in ENE 10.4 mph 10.4 mph 65 % 0 in
20:55 74.3 °F 66.2 °F 29.8 in NE 2 mph 3 mph 76 % 0 in
20:57 77.9 °F 65.1 °F 29.8 in ENE 6.9 mph 6.9 mph 65 % 0 in
21:02 77.7 °F 64.9 °F 29.8 in East 5.8 mph 5.8 mph 65 % 0 in
21:05 74.5 °F 66.4 °F 29.8 in NE 1 mph 3 mph 76 % 0 in
21:07 77.7 °F 65.5 °F 29.8 in NNE 6.9 mph 6.9 mph 66 % 0 in
21:12 77.5 °F 64.8 °F 29.8 in East 4.6 mph 4.6 mph 65 % 0 in
21:15 74.5 °F 66.4 °F 29.8 in NE 2 mph 3 mph 76 % 0 in
21:17 77.5 °F 65.3 °F 29.8 in ESE 9.2 mph 9.2 mph 66 % 0 in
21:22 77.2 °F 64.9 °F 29.8 in ESE 7.8 mph 7.8 mph 66 % 0 in
21:25 74.5 °F 66.4 °F 29.8 in NNE 3 mph 3 mph 76 % 0 in
21:27 77 °F 65.1 °F 29.8 in ENE 8.1 mph 8.1 mph 67 % 0 in
21:32 77 °F 65.1 °F 29.8 in East 5.8 mph 5.8 mph 67 % 0 in
21:35 74.7 °F 66.2 °F 29.8 in NNE 3 mph 5 mph 75 % 0 in
21:37 76.8 °F 65.5 °F 29.8 in ENE 5.8 mph 5.8 mph 68 % 0 in
21:42 76.6 °F 65.7 °F 29.8 in SE 5.8 mph 5.8 mph 69 % 0 in
21:45 74.7 °F 65.8 °F 29.8 in NE 5 mph 5 mph 74 % 0 in
21:47 76.6 °F 65.7 °F 29.8 in ENE 6.9 mph 6.9 mph 69 % 0 in
21:52 76.5 °F 65.8 °F 29.8 in ENE 7.8 mph 7.8 mph 70 % 0 in
21:55 74.7 °F 65.8 °F 29.8 in NE 3 mph 4 mph 74 % 0 in
21:57 76.3 °F 65.8 °F 29.8 in East 4.6 mph 4.6 mph 70 % 0 in
22:02 76.3 °F 65.8 °F 29.8 in ENE 8.1 mph 8.1 mph 70 % 0 in
22:05 74.7 °F 65.5 °F 29.8 in NNE 3 mph 4 mph 73 % 0 in
22:08 76.1 °F 65.7 °F 29.8 in SE 4.6 mph 4.6 mph 70 % 0 in
22:13 75.9 °F 65.8 °F 29.8 in NE 5.8 mph 5.8 mph 71 % 0 in
22:15 74.5 °F 65.3 °F 29.8 in NNE 3 mph 6 mph 73 % 0 in
22:18 75.9 °F 65.8 °F 29.8 in East 4.6 mph 4.6 mph 71 % 0 in
22:23 75.9 °F 65.8 °F 29.8 in SSE 9.2 mph 9.2 mph 71 % 0 in
22:25 74.5 °F 65.3 °F 29.8 in NNE 3 mph 5 mph 73 % 0 in
22:28 75.7 °F 65.7 °F 29.8 in ESE 6.9 mph 6.9 mph 71 % 0 in
22:33 75.7 °F 65.7 °F 29.8 in ESE 9.2 mph 9.2 mph 71 % 0 in
22:35 74.3 °F 65.1 °F 29.8 in NNE 1 mph 4 mph 73 % 0 in
22:38 75.7 °F 65.7 °F 29.8 in SE 4.6 mph 4.6 mph 71 % 0 in
22:43 75.6 °F 65.8 °F 29.8 in East 6.9 mph 6.9 mph 72 % 0 in
22:45 73.9 °F 64.8 °F 29.8 in NNE 1 mph 3 mph 73 % 0 in
22:48 75.6 °F 65.8 °F 29.8 in ESE 5.8 mph 5.8 mph 72 % 0 in
22:53 75.6 °F 65.8 °F 29.8 in East 5.8 mph 5.8 mph 72 % 0 in
22:55 73.8 °F 64.6 °F 29.8 in NE 2 mph 3 mph 73 % 0 in
22:58 75.4 °F 66 °F 29.8 in NE 7.1 mph 7.1 mph 73 % 0 in
23:03 75.4 °F 66 °F 29.8 in NNE 5.8 mph 5.8 mph 73 % 0 in
23:05 73.6 °F 64.4 °F 29.8 in NE 1 mph 3 mph 73 % 0 in
23:09 75.2 °F 65.8 °F 29.8 in ENE 3.5 mph 3.5 mph 73 % 0 in
23:14 75.2 °F 65.7 °F 29.8 in NNE 4.3 mph 4.3 mph 72 % 0 in
23:15 73.4 °F 64.2 °F 29.8 in NE 3 mph 4 mph 73 % 0 in
23:19 75 °F 66.2 °F 29.8 in NE 4.6 mph 4.6 mph 74 % 0 in
23:24 75 °F 66.2 °F 29.8 in ENE 3.5 mph 3.5 mph 74 % 0 in
23:25 73 °F 63.9 °F 29.8 in NE 3 mph 3 mph 73 % 0 in
23:29 74.8 °F 66 °F 29.8 in ENE 6.9 mph 6.9 mph 74 % 0 in
23:34 74.7 °F 66.2 °F 29.8 in ENE 5.8 mph 5.8 mph 75 % 0 in
23:35 73 °F 64.2 °F 29.8 in NE 2 mph 4 mph 74 % 0 in
23:40 74.7 °F 66.2 °F 29.8 in NE 5.8 mph 5.8 mph 75 % 0 in
23:45 74.7 °F 66.6 °F 29.8 in NE 6 mph 6 mph 76 % 0 in
23:50 74.5 °F 66.4 °F 29.8 in ENE 3.8 mph 4 mph 76 % 0 in
23:55 74.5 °F 66.4 °F 29.8 in NE 5.8 mph 5.8 mph 76 % 0 in
Meteo Sesrovires
Elogis d' Weather Underground - 3.75 mb

Guio original per  Jim McMurry - jmcmurry@mwt.net Adaptat per a la plantilla per  Wim van der Kuil - Leuven-Template.eu

Trobareu la nostra informacio del temps tambe a:

Weather Underground

AWEKAS